sensor_id;sensor_type;location;lat;lon;timestamp;pressure;altitude;pressure_sealevel;temperature;humidity
76990;BME280;65924;47.250;11.332;2024-01-06T00:00:30;93613.05;;;3.01;79.08
76990;BME280;65924;47.250;11.332;2024-01-06T00:01:00;93614.19;;;3.01;78.94
76990;BME280;65924;47.250;11.332;2024-01-06T00:01:31;93614.00;;;3.02;78.75
76990;BME280;65924;47.250;11.332;2024-01-06T00:02:02;93613.69;;;3.01;78.61
76990;BME280;65924;47.250;11.332;2024-01-06T00:02:32;93612.01;;;3.02;78.57
76990;BME280;65924;47.250;11.332;2024-01-06T00:03:03;93614.83;;;3.02;78.70
76990;BME280;65924;47.250;11.332;2024-01-06T00:03:34;93616.63;;;3.03;79.13
76990;BME280;65924;47.250;11.332;2024-01-06T00:04:04;93617.63;;;3.03;79.09
76990;BME280;65924;47.250;11.332;2024-01-06T00:04:35;93617.77;;;3.04;79.04
76990;BME280;65924;47.250;11.332;2024-01-06T00:05:06;93616.05;;;3.04;79.09
76990;BME280;65924;47.250;11.332;2024-01-06T00:05:36;93618.05;;;3.05;79.36
76990;BME280;65924;47.250;11.332;2024-01-06T00:06:07;93618.38;;;3.05;79.15
76990;BME280;65924;47.250;11.332;2024-01-06T00:06:38;93615.72;;;3.04;79.01
76990;BME280;65924;47.250;11.332;2024-01-06T00:07:08;93614.05;;;3.04;78.93
76990;BME280;65924;47.250;11.332;2024-01-06T00:07:39;93613.90;;;3.04;78.91
76990;BME280;65924;47.250;11.332;2024-01-06T00:08:10;93613.23;;;3.04;78.89
76990;BME280;65924;47.250;11.332;2024-01-06T00:08:40;93612.41;;;3.03;79.03
76990;BME280;65924;47.250;11.332;2024-01-06T00:09:11;93611.38;;;3.03;79.12
76990;BME280;65924;47.250;11.332;2024-01-06T00:09:42;93611.15;;;3.05;79.40
76990;BME280;65924;47.250;11.332;2024-01-06T00:10:12;93611.45;;;3.05;79.61
76990;BME280;65924;47.250;11.332;2024-01-06T00:10:43;93614.08;;;3.06;79.55
76990;BME280;65924;47.250;11.332;2024-01-06T00:11:13;93611.59;;;3.06;79.52
76990;BME280;65924;47.250;11.332;2024-01-06T00:11:44;93611.09;;;3.06;79.47
76990;BME280;65924;47.250;11.332;2024-01-06T00:12:15;93611.98;;;3.05;79.30
76990;BME280;65924;47.250;11.332;2024-01-06T00:12:45;93610.29;;;3.05;79.42
76990;BME280;65924;47.250;11.332;2024-01-06T00:13:16;93611.50;;;3.05;79.42
76990;BME280;65924;47.250;11.332;2024-01-06T00:13:47;93610.52;;;3.04;79.48
76990;BME280;65924;47.250;11.332;2024-01-06T00:14:17;93611.34;;;3.04;79.53
76990;BME280;65924;47.250;11.332;2024-01-06T00:14:48;93611.70;;;3.04;79.54
76990;BME280;65924;47.250;11.332;2024-01-06T00:15:19;93614.09;;;3.03;79.42
76990;BME280;65924;47.250;11.332;2024-01-06T00:15:49;93610.77;;;3.03;79.62
76990;BME280;65924;47.250;11.332;2024-01-06T00:16:20;93609.92;;;3.03;79.70
76990;BME280;65924;47.250;11.332;2024-01-06T00:16:51;93613.80;;;3.03;79.88
76990;BME280;65924;47.250;11.332;2024-01-06T00:17:22;93613.52;;;3.02;79.82
76990;BME280;65924;47.250;11.332;2024-01-06T00:17:52;93613.17;;;3.01;80.02
76990;BME280;65924;47.250;11.332;2024-01-06T00:18:23;93610.67;;;3.01;80.14
76990;BME280;65924;47.250;11.332;2024-01-06T00:18:53;93612.35;;;3.01;80.03
76990;BME280;65924;47.250;11.332;2024-01-06T00:19:25;93609.36;;;3.01;79.97
76990;BME280;65924;47.250;11.332;2024-01-06T00:19:55;93607.36;;;3.01;79.85
76990;BME280;65924;47.250;11.332;2024-01-06T00:20:26;93611.72;;;3.01;80.05
76990;BME280;65924;47.250;11.332;2024-01-06T00:20:56;93609.88;;;3.00;80.08
76990;BME280;65924;47.250;11.332;2024-01-06T00:21:27;93609.23;;;3.00;80.20
76990;BME280;65924;47.250;11.332;2024-01-06T00:21:58;93608.07;;;3.00;80.17
76990;BME280;65924;47.250;11.332;2024-01-06T00:22:28;93604.55;;;3.00;80.32
76990;BME280;65924;47.250;11.332;2024-01-06T00:22:59;93603.98;;;3.01;80.46
76990;BME280;65924;47.250;11.332;2024-01-06T00:23:30;93604.15;;;3.01;80.38
76990;BME280;65924;47.250;11.332;2024-01-06T00:24:00;93604.17;;;3.00;80.33
76990;BME280;65924;47.250;11.332;2024-01-06T00:24:31;93605.16;;;3.01;80.32
76990;BME280;65924;47.250;11.332;2024-01-06T00:25:02;93604.86;;;3.00;80.29
76990;BME280;65924;47.250;11.332;2024-01-06T00:25:33;93604.37;;;3.00;80.44
76990;BME280;65924;47.250;11.332;2024-01-06T00:26:04;93604.05;;;3.00;80.39
76990;BME280;65924;47.250;11.332;2024-01-06T00:26:34;93604.77;;;2.99;80.44
76990;BME280;65924;47.250;11.332;2024-01-06T00:27:05;93606.45;;;2.99;80.42
76990;BME280;65924;47.250;11.332;2024-01-06T00:27:35;93604.46;;;2.98;80.39
76990;BME280;65924;47.250;11.332;2024-01-06T00:28:06;93603.46;;;2.98;80.40
76990;BME280;65924;47.250;11.332;2024-01-06T00:28:38;93607.86;;;2.98;80.52
76990;BME280;65924;47.250;11.332;2024-01-06T00:29:09;93605.04;;;2.97;80.43
76990;BME280;65924;47.250;11.332;2024-01-06T00:29:39;93603.88;;;2.97;80.45
76990;BME280;65924;47.250;11.332;2024-01-06T00:30:11;93605.92;;;2.96;80.39
76990;BME280;65924;47.250;11.332;2024-01-06T00:30:41;93605.77;;;2.96;80.40
76990;BME280;65924;47.250;11.332;2024-01-06T00:31:12;93603.80;;;2.95;80.51
76990;BME280;65924;47.250;11.332;2024-01-06T00:31:42;93605.63;;;2.95;80.57
76990;BME280;65924;47.250;11.332;2024-01-06T00:32:13;93604.96;;;2.95;80.56
76990;BME280;65924;47.250;11.332;2024-01-06T00:32:44;93602.30;;;2.95;80.44
76990;BME280;65924;47.250;11.332;2024-01-06T00:33:14;93601.83;;;2.94;80.68
76990;BME280;65924;47.250;11.332;2024-01-06T00:33:46;93603.02;;;2.94;80.60
76990;BME280;65924;47.250;11.332;2024-01-06T00:34:17;93601.58;;;2.93;80.61
76990;BME280;65924;47.250;11.332;2024-01-06T00:34:47;93603.59;;;2.92;80.67
76990;BME280;65924;47.250;11.332;2024-01-06T00:35:18;93602.79;;;2.92;80.84
76990;BME280;65924;47.250;11.332;2024-01-06T00:35:48;93604.48;;;2.92;80.86
76990;BME280;65924;47.250;11.332;2024-01-06T00:36:19;93603.30;;;2.91;81.04
76990;BME280;65924;47.250;11.332;2024-01-06T00:36:49;93602.14;;;2.91;81.19
76990;BME280;65924;47.250;11.332;2024-01-06T00:37:20;93601.75;;;2.92;81.26
76990;BME280;65924;47.250;11.332;2024-01-06T00:37:51;93604.73;;;2.93;81.33
76990;BME280;65924;47.250;11.332;2024-01-06T00:38:21;93600.69;;;2.93;81.35
76990;BME280;65924;47.250;11.332;2024-01-06T00:38:52;93601.02;;;2.93;81.33
76990;BME280;65924;47.250;11.332;2024-01-06T00:39:22;93601.70;;;2.93;81.03
76990;BME280;65924;47.250;11.332;2024-01-06T00:39:53;93600.88;;;2.93;81.08
76990;BME280;65924;47.250;11.332;2024-01-06T00:40:23;93599.52;;;2.93;81.07
76990;BME280;65924;47.250;11.332;2024-01-06T00:40:54;93601.89;;;2.93;81.20
76990;BME280;65924;47.250;11.332;2024-01-06T00:41:25;93600.93;;;2.92;81.09
76990;BME280;65924;47.250;11.332;2024-01-06T00:41:57;93603.46;;;2.92;81.12
76990;BME280;65924;47.250;11.332;2024-01-06T00:42:28;93605.33;;;2.92;81.11
76990;BME280;65924;47.250;11.332;2024-01-06T00:42:59;93606.37;;;2.91;81.17
76990;BME280;65924;47.250;11.332;2024-01-06T00:43:29;93607.86;;;2.91;81.52
76990;BME280;65924;47.250;11.332;2024-01-06T00:44:00;93608.52;;;2.91;81.51
76990;BME280;65924;47.250;11.332;2024-01-06T00:44:31;93607.01;;;2.91;81.52
76990;BME280;65924;47.250;11.332;2024-01-06T00:45:01;93610.84;;;2.92;81.72
76990;BME280;65924;47.250;11.332;2024-01-06T00:45:32;93609.14;;;2.92;81.77
76990;BME280;65924;47.250;11.332;2024-01-06T00:46:02;93608.44;;;2.93;81.89
76990;BME280;65924;47.250;11.332;2024-01-06T00:46:35;93607.72;;;2.94;81.99
76990;BME280;65924;47.250;11.332;2024-01-06T00:47:05;93606.63;;;2.95;82.22
76990;BME280;65924;47.250;11.332;2024-01-06T00:47:36;93607.24;;;2.97;82.08
76990;BME280;65924;47.250;11.332;2024-01-06T00:48:07;93609.36;;;2.98;82.07
76990;BME280;65924;47.250;11.332;2024-01-06T00:48:37;93608.29;;;2.99;82.18
76990;BME280;65924;47.250;11.332;2024-01-06T00:49:08;93606.75;;;2.99;82.15
76990;BME280;65924;47.250;11.332;2024-01-06T00:49:38;93608.52;;;3.01;82.22
76990;BME280;65924;47.250;11.332;2024-01-06T00:50:09;93607.31;;;3.01;82.17
76990;BME280;65924;47.250;11.332;2024-01-06T00:50:39;93609.98;;;3.02;81.85
76990;BME280;65924;47.250;11.332;2024-01-06T00:51:10;93609.33;;;3.01;81.77
76990;BME280;65924;47.250;11.332;2024-01-06T00:51:40;93609.17;;;3.01;81.73
76990;BME280;65924;47.250;11.332;2024-01-06T00:52:11;93605.50;;;3.01;81.82
76990;BME280;65924;47.250;11.332;2024-01-06T00:52:42;93605.36;;;3.00;81.79
76990;BME280;65924;47.250;11.332;2024-01-06T00:53:13;93604.36;;;3.00;81.78
76990;BME280;65924;47.250;11.332;2024-01-06T00:53:44;93606.07;;;2.99;81.64
76990;BME280;65924;47.250;11.332;2024-01-06T00:54:15;93605.98;;;2.98;81.85
76990;BME280;65924;47.250;11.332;2024-01-06T00:54:45;93608.92;;;3.00;82.11
76990;BME280;65924;47.250;11.332;2024-01-06T00:55:19;93607.74;;;3.00;82.15
76990;BME280;65924;47.250;11.332;2024-01-06T00:55:50;93609.88;;;3.00;81.94
76990;BME280;65924;47.250;11.332;2024-01-06T00:56:20;93610.35;;;3.01;82.09
76990;BME280;65924;47.250;11.332;2024-01-06T00:56:51;93614.19;;;3.02;81.94
76990;BME280;65924;47.250;11.332;2024-01-06T00:57:21;93610.66;;;3.02;81.94
76990;BME280;65924;47.250;11.332;2024-01-06T00:57:54;93615.64;;;3.03;82.14
76990;BME280;65924;47.250;11.332;2024-01-06T00:58:25;93612.77;;;3.02;82.21
76990;BME280;65924;47.250;11.332;2024-01-06T00:58:56;93615.10;;;3.03;82.17
76990;BME280;65924;47.250;11.332;2024-01-06T00:59:26;93612.41;;;3.03;82.23
76990;BME280;65924;47.250;11.332;2024-01-06T00:59:57;93613.75;;;3.03;82.16
76990;BME280;65924;47.250;11.332;2024-01-06T01:00:28;93612.94;;;3.03;82.14
76990;BME280;65924;47.250;11.332;2024-01-06T01:00:58;93609.80;;;3.02;82.04
76990;BME280;65924;47.250;11.332;2024-01-06T01:01:29;93611.50;;;3.02;82.19
76990;BME280;65924;47.250;11.332;2024-01-06T01:02:00;93608.84;;;3.01;82.14
76990;BME280;65924;47.250;11.332;2024-01-06T01:02:31;93608.32;;;3.01;82.26
76990;BME280;65924;47.250;11.332;2024-01-06T01:03:01;93611.16;;;3.02;82.62
76990;BME280;65924;47.250;11.332;2024-01-06T01:03:32;93609.30;;;3.02;82.63
76990;BME280;65924;47.250;11.332;2024-01-06T01:04:07;93608.63;;;3.02;82.78
76990;BME280;65924;47.250;11.332;2024-01-06T01:04:37;93604.92;;;3.02;82.81
76990;BME280;65924;47.250;11.332;2024-01-06T01:05:08;93605.58;;;3.02;82.85
76990;BME280;65924;47.250;11.332;2024-01-06T01:05:39;93610.73;;;3.03;82.96
76990;BME280;65924;47.250;11.332;2024-01-06T01:06:10;93608.56;;;3.03;83.07
76990;BME280;65924;47.250;11.332;2024-01-06T01:06:40;93613.19;;;3.04;83.02
76990;BME280;65924;47.250;11.332;2024-01-06T01:07:12;93613.05;;;3.04;83.09
76990;BME280;65924;47.250;11.332;2024-01-06T01:07:43;93617.06;;;3.04;82.95
76990;BME280;65924;47.250;11.332;2024-01-06T01:08:14;93618.05;;;3.05;83.17
76990;BME280;65924;47.250;11.332;2024-01-06T01:08:45;93613.50;;;3.05;83.29
76990;BME280;65924;47.250;11.332;2024-01-06T01:09:16;93614.51;;;3.05;83.16
76990;BME280;65924;47.250;11.332;2024-01-06T01:09:46;93614.48;;;3.05;83.15
76990;BME280;65924;47.250;11.332;2024-01-06T01:10:17;93614.14;;;3.05;83.12
76990;BME280;65924;47.250;11.332;2024-01-06T01:10:48;93620.30;;;3.06;83.06
76990;BME280;65924;47.250;11.332;2024-01-06T01:11:19;93615.61;;;3.06;82.83
76990;BME280;65924;47.250;11.332;2024-01-06T01:11:50;93613.09;;;3.06;82.81
76990;BME280;65924;47.250;11.332;2024-01-06T01:12:20;93615.27;;;3.07;82.82
76990;BME280;65924;47.250;11.332;2024-01-06T01:12:51;93611.55;;;3.07;82.96
76990;BME280;65924;47.250;11.332;2024-01-06T01:13:22;93610.75;;;3.06;82.99
76990;BME280;65924;47.250;11.332;2024-01-06T01:13:52;93612.73;;;3.07;83.19
76990;BME280;65924;47.250;11.332;2024-01-06T01:14:23;93610.53;;;3.07;83.31
76990;BME280;65924;47.250;11.332;2024-01-06T01:14:53;93612.55;;;3.07;83.25
76990;BME280;65924;47.250;11.332;2024-01-06T01:15:24;93611.20;;;3.07;83.35
76990;BME280;65924;47.250;11.332;2024-01-06T01:15:55;93614.27;;;3.06;83.35
76990;BME280;65924;47.250;11.332;2024-01-06T01:16:26;93613.92;;;3.06;83.44
76990;BME280;65924;47.250;11.332;2024-01-06T01:16:56;93614.89;;;3.07;83.45
76990;BME280;65924;47.250;11.332;2024-01-06T01:17:27;93617.55;;;3.08;83.52
76990;BME280;65924;47.250;11.332;2024-01-06T01:17:57;93615.86;;;3.08;83.52
76990;BME280;65924;47.250;11.332;2024-01-06T01:18:28;93617.17;;;3.08;83.46
76990;BME280;65924;47.250;11.332;2024-01-06T01:18:59;93615.80;;;3.09;83.46
76990;BME280;65924;47.250;11.332;2024-01-06T01:19:29;93615.09;;;3.09;83.33
76990;BME280;65924;47.250;11.332;2024-01-06T01:20:00;93618.61;;;3.10;83.34
76990;BME280;65924;47.250;11.332;2024-01-06T01:20:31;93615.97;;;3.09;83.23
76990;BME280;65924;47.250;11.332;2024-01-06T01:21:01;93616.09;;;3.10;83.25
76990;BME280;65924;47.250;11.332;2024-01-06T01:21:32;93615.44;;;3.09;83.38
76990;BME280;65924;47.250;11.332;2024-01-06T01:22:03;93616.45;;;3.09;83.17
76990;BME280;65924;47.250;11.332;2024-01-06T01:22:33;93612.39;;;3.10;83.18
76990;BME280;65924;47.250;11.332;2024-01-06T01:23:04;93612.82;;;3.11;83.28
76990;BME280;65924;47.250;11.332;2024-01-06T01:23:35;93614.31;;;3.12;83.32
76990;BME280;65924;47.250;11.332;2024-01-06T01:24:05;93613.55;;;3.14;83.27
76990;BME280;65924;47.250;11.332;2024-01-06T01:24:36;93612.12;;;3.15;83.25
76990;BME280;65924;47.250;11.332;2024-01-06T01:25:06;93610.71;;;3.17;83.25
76990;BME280;65924;47.250;11.332;2024-01-06T01:25:38;93612.45;;;3.18;83.40
76990;BME280;65924;47.250;11.332;2024-01-06T01:26:10;93612.61;;;3.18;83.43
76990;BME280;65924;47.250;11.332;2024-01-06T01:26:40;93611.73;;;3.19;83.30
76990;BME280;65924;47.250;11.332;2024-01-06T01:27:11;93613.81;;;3.21;83.31
76990;BME280;65924;47.250;11.332;2024-01-06T01:27:41;93614.80;;;3.22;83.24
76990;BME280;65924;47.250;11.332;2024-01-06T01:28:12;93615.80;;;3.22;83.14
76990;BME280;65924;47.250;11.332;2024-01-06T01:28:43;93612.23;;;3.22;83.08
76990;BME280;65924;47.250;11.332;2024-01-06T01:29:14;93611.24;;;3.22;83.37
76990;BME280;65924;47.250;11.332;2024-01-06T01:29:44;93610.28;;;3.21;83.15
76990;BME280;65924;47.250;11.332;2024-01-06T01:30:15;93612.64;;;3.21;83.30
76990;BME280;65924;47.250;11.332;2024-01-06T01:30:46;93612.19;;;3.20;83.30
76990;BME280;65924;47.250;11.332;2024-01-06T01:31:17;93612.42;;;3.19;83.51
76990;BME280;65924;47.250;11.332;2024-01-06T01:31:47;93614.98;;;3.18;83.70
76990;BME280;65924;47.250;11.332;2024-01-06T01:32:18;93616.70;;;3.18;83.77
76990;BME280;65924;47.250;11.332;2024-01-06T01:32:49;93615.07;;;3.17;83.96
76990;BME280;65924;47.250;11.332;2024-01-06T01:33:20;93613.57;;;3.16;83.99
76990;BME280;65924;47.250;11.332;2024-01-06T01:33:50;93614.29;;;3.16;84.12
76990;BME280;65924;47.250;11.332;2024-01-06T01:34:21;93612.69;;;3.14;84.10
76990;BME280;65924;47.250;11.332;2024-01-06T01:34:51;93610.39;;;3.13;83.95
76990;BME280;65924;47.250;11.332;2024-01-06T01:35:22;93608.56;;;3.13;84.08
76990;BME280;65924;47.250;11.332;2024-01-06T01:35:52;93609.78;;;3.11;84.22
76990;BME280;65924;47.250;11.332;2024-01-06T01:36:23;93605.67;;;3.10;83.98
76990;BME280;65924;47.250;11.332;2024-01-06T01:36:54;93609.94;;;3.08;84.09
76990;BME280;65924;47.250;11.332;2024-01-06T01:37:25;93609.85;;;3.07;84.05
76990;BME280;65924;47.250;11.332;2024-01-06T01:37:55;93611.74;;;3.06;83.82
76990;BME280;65924;47.250;11.332;2024-01-06T01:38:26;93610.79;;;3.05;83.63
76990;BME280;65924;47.250;11.332;2024-01-06T01:38:56;93611.54;;;3.04;83.70
76990;BME280;65924;47.250;11.332;2024-01-06T01:39:27;93613.23;;;3.04;83.64
76990;BME280;65924;47.250;11.332;2024-01-06T01:39:58;93614.15;;;3.02;83.65
76990;BME280;65924;47.250;11.332;2024-01-06T01:40:28;93610.81;;;3.02;83.72
76990;BME280;65924;47.250;11.332;2024-01-06T01:40:59;93613.35;;;3.01;83.65
76990;BME280;65924;47.250;11.332;2024-01-06T01:41:29;93612.73;;;3.01;83.61
76990;BME280;65924;47.250;11.332;2024-01-06T01:42:00;93614.08;;;3.00;83.65
76990;BME280;65924;47.250;11.332;2024-01-06T01:42:32;93613.91;;;3.01;83.70
76990;BME280;65924;47.250;11.332;2024-01-06T01:43:03;93616.77;;;3.00;83.76
76990;BME280;65924;47.250;11.332;2024-01-06T01:43:34;93614.12;;;3.00;83.85
76990;BME280;65924;47.250;11.332;2024-01-06T01:44:04;93615.98;;;3.00;83.84
76990;BME280;65924;47.250;11.332;2024-01-06T01:44:35;93614.02;;;2.98;83.81
76990;BME280;65924;47.250;11.332;2024-01-06T01:45:06;93611.23;;;2.98;83.71
76990;BME280;65924;47.250;11.332;2024-01-06T01:45:36;93613.95;;;2.97;83.67
76990;BME280;65924;47.250;11.332;2024-01-06T01:46:07;93615.36;;;2.95;83.60
76990;BME280;65924;47.250;11.332;2024-01-06T01:46:38;93611.85;;;2.95;83.61
76990;BME280;65924;47.250;11.332;2024-01-06T01:47:09;93613.09;;;2.94;83.76
76990;BME280;65924;47.250;11.332;2024-01-06T01:47:40;93612.30;;;2.93;83.62
76990;BME280;65924;47.250;11.332;2024-01-06T01:48:11;93613.69;;;2.92;83.52
76990;BME280;65924;47.250;11.332;2024-01-06T01:48:42;93610.81;;;2.89;83.56
76990;BME280;65924;47.250;11.332;2024-01-06T01:49:13;93612.27;;;2.90;83.68
76990;BME280;65924;47.250;11.332;2024-01-06T01:49:45;93610.81;;;2.89;83.48
76990;BME280;65924;47.250;11.332;2024-01-06T01:50:17;93611.58;;;2.88;83.50
76990;BME280;65924;47.250;11.332;2024-01-06T01:50:48;93609.79;;;2.87;83.62
76990;BME280;65924;47.250;11.332;2024-01-06T01:51:19;93606.30;;;2.86;83.65
76990;BME280;65924;47.250;11.332;2024-01-06T01:51:50;93603.69;;;2.85;83.64
76990;BME280;65924;47.250;11.332;2024-01-06T01:52:21;93606.05;;;2.84;83.64
76990;BME280;65924;47.250;11.332;2024-01-06T01:52:51;93603.90;;;2.84;83.66
76990;BME280;65924;47.250;11.332;2024-01-06T01:53:23;93606.95;;;2.83;83.77
76990;BME280;65924;47.250;11.332;2024-01-06T01:53:57;93604.15;;;2.82;83.88
76990;BME280;65924;47.250;11.332;2024-01-06T01:54:27;93606.38;;;2.81;83.78
76990;BME280;65924;47.250;11.332;2024-01-06T01:54:58;93611.97;;;2.80;83.74
76990;BME280;65924;47.250;11.332;2024-01-06T01:55:29;93608.33;;;2.80;83.81
76990;BME280;65924;47.250;11.332;2024-01-06T01:56:00;93613.20;;;2.79;83.65
76990;BME280;65924;47.250;11.332;2024-01-06T01:56:34;93611.38;;;2.79;83.77
76990;BME280;65924;47.250;11.332;2024-01-06T01:57:07;93611.07;;;2.78;83.84
76990;BME280;65924;47.250;11.332;2024-01-06T01:57:38;93610.80;;;2.77;83.87
76990;BME280;65924;47.250;11.332;2024-01-06T01:58:09;93611.67;;;2.76;83.79
76990;BME280;65924;47.250;11.332;2024-01-06T01:58:41;93608.35;;;2.76;83.97
76990;BME280;65924;47.250;11.332;2024-01-06T01:59:13;93610.38;;;2.76;83.88
76990;BME280;65924;47.250;11.332;2024-01-06T01:59:44;93607.71;;;2.75;83.96
76990;BME280;65924;47.250;11.332;2024-01-06T02:00:15;93610.77;;;2.74;84.06
76990;BME280;65924;47.250;11.332;2024-01-06T02:00:46;93610.46;;;2.73;84.06
76990;BME280;65924;47.250;11.332;2024-01-06T02:01:17;93612.82;;;2.73;84.08
76990;BME280;65924;47.250;11.332;2024-01-06T02:01:48;93610.31;;;2.73;84.06
76990;BME280;65924;47.250;11.332;2024-01-06T02:02:21;93611.62;;;2.74;84.16
76990;BME280;65924;47.250;11.332;2024-01-06T02:02:53;93610.27;;;2.74;84.21
76990;BME280;65924;47.250;11.332;2024-01-06T02:03:24;93609.23;;;2.75;84.27
76990;BME280;65924;47.250;11.332;2024-01-06T02:03:55;93606.55;;;2.75;84.31
76990;BME280;65924;47.250;11.332;2024-01-06T02:04:26;93605.16;;;2.76;84.32
76990;BME280;65924;47.250;11.332;2024-01-06T02:04:57;93605.30;;;2.76;84.38
76990;BME280;65924;47.250;11.332;2024-01-06T02:05:27;93607.80;;;2.77;84.47
76990;BME280;65924;47.250;11.332;2024-01-06T02:05:58;93609.13;;;2.77;84.56
76990;BME280;65924;47.250;11.332;2024-01-06T02:06:29;93609.75;;;2.78;84.68
76990;BME280;65924;47.250;11.332;2024-01-06T02:07:00;93609.91;;;2.78;84.84
76990;BME280;65924;47.250;11.332;2024-01-06T02:07:30;93612.56;;;2.79;84.82
76990;BME280;65924;47.250;11.332;2024-01-06T02:08:01;93610.23;;;2.78;84.83
76990;BME280;65924;47.250;11.332;2024-01-06T02:08:32;93609.39;;;2.78;84.73
76990;BME280;65924;47.250;11.332;2024-01-06T02:09:02;93605.30;;;2.79;84.79
76990;BME280;65924;47.250;11.332;2024-01-06T02:09:33;93602.45;;;2.80;84.83
76990;BME280;65924;47.250;11.332;2024-01-06T02:10:04;93600.42;;;2.80;84.72
76990;BME280;65924;47.250;11.332;2024-01-06T02:10:35;93598.37;;;2.80;84.78
76990;BME280;65924;47.250;11.332;2024-01-06T02:11:06;93599.52;;;2.81;84.76
76990;BME280;65924;47.250;11.332;2024-01-06T02:11:37;93603.20;;;2.81;84.63
76990;BME280;65924;47.250;11.332;2024-01-06T02:12:07;93602.54;;;2.81;84.52
76990;BME280;65924;47.250;11.332;2024-01-06T02:12:38;93600.17;;;2.81;84.42
76990;BME280;65924;47.250;11.332;2024-01-06T02:13:12;93605.35;;;2.82;84.47
76990;BME280;65924;47.250;11.332;2024-01-06T02:13:43;93604.34;;;2.82;84.45
76990;BME280;65924;47.250;11.332;2024-01-06T02:14:13;93604.64;;;2.82;84.53
76990;BME280;65924;47.250;11.332;2024-01-06T02:14:44;93603.64;;;2.82;84.50
76990;BME280;65924;47.250;11.332;2024-01-06T02:15:14;93603.78;;;2.83;84.54
76990;BME280;65924;47.250;11.332;2024-01-06T02:15:45;93607.45;;;2.83;84.44
76990;BME280;65924;47.250;11.332;2024-01-06T02:16:15;93606.25;;;2.84;84.40
76990;BME280;65924;47.250;11.332;2024-01-06T02:16:46;93605.62;;;2.83;84.44
76990;BME280;65924;47.250;11.332;2024-01-06T02:17:17;93606.31;;;2.83;84.46
76990;BME280;65924;47.250;11.332;2024-01-06T02:17:47;93604.27;;;2.83;84.33
76990;BME280;65924;47.250;11.332;2024-01-06T02:18:18;93601.27;;;2.83;84.41
76990;BME280;65924;47.250;11.332;2024-01-06T02:18:49;93604.10;;;2.83;84.48
76990;BME280;65924;47.250;11.332;2024-01-06T02:19:20;93605.39;;;2.84;84.47
76990;BME280;65924;47.250;11.332;2024-01-06T02:19:50;93608.25;;;2.84;84.35
76990;BME280;65924;47.250;11.332;2024-01-06T02:20:21;93609.42;;;2.84;84.44
76990;BME280;65924;47.250;11.332;2024-01-06T02:20:58;93605.88;;;2.84;84.56
76990;BME280;65924;47.250;11.332;2024-01-06T02:21:31;93612.26;;;2.84;84.59
76990;BME280;65924;47.250;11.332;2024-01-06T02:22:05;93608.77;;;2.84;84.58
76990;BME280;65924;47.250;11.332;2024-01-06T02:22:36;93608.30;;;2.83;84.49
76990;BME280;65924;47.250;11.332;2024-01-06T02:23:07;93612.34;;;2.83;84.48
76990;BME280;65924;47.250;11.332;2024-01-06T02:23:37;93611.96;;;2.83;84.47
76990;BME280;65924;47.250;11.332;2024-01-06T02:24:08;93609.95;;;2.84;84.29
76990;BME280;65924;47.250;11.332;2024-01-06T02:24:39;93611.83;;;2.83;84.44
76990;BME280;65924;47.250;11.332;2024-01-06T02:25:09;93612.16;;;2.83;84.45
76990;BME280;65924;47.250;11.332;2024-01-06T02:25:43;93612.13;;;2.84;84.44
76990;BME280;65924;47.250;11.332;2024-01-06T02:26:13;93614.33;;;2.83;84.75
76990;BME280;65924;47.250;11.332;2024-01-06T02:26:45;93616.52;;;2.83;84.60
76990;BME280;65924;47.250;11.332;2024-01-06T02:27:16;93614.30;;;2.84;84.66
76990;BME280;65924;47.250;11.332;2024-01-06T02:27:47;93611.30;;;2.84;84.46
76990;BME280;65924;47.250;11.332;2024-01-06T02:28:17;93612.81;;;2.83;84.49
76990;BME280;65924;47.250;11.332;2024-01-06T02:28:48;93617.71;;;2.83;84.43
76990;BME280;65924;47.250;11.332;2024-01-06T02:29:21;93611.39;;;2.82;84.47
76990;BME280;65924;47.250;11.332;2024-01-06T02:29:54;93610.89;;;2.82;84.42
76990;BME280;65924;47.250;11.332;2024-01-06T02:30:25;93609.05;;;2.82;84.42
76990;BME280;65924;47.250;11.332;2024-01-06T02:30:55;93612.91;;;2.82;84.60
76990;BME280;65924;47.250;11.332;2024-01-06T02:31:26;93607.68;;;2.82;84.53
76990;BME280;65924;47.250;11.332;2024-01-06T02:31:57;93609.39;;;2.82;84.48
76990;BME280;65924;47.250;11.332;2024-01-06T02:32:29;93611.27;;;2.81;84.28
76990;BME280;65924;47.250;11.332;2024-01-06T02:32:59;93613.50;;;2.80;84.23
76990;BME280;65924;47.250;11.332;2024-01-06T02:33:30;93605.83;;;2.79;84.30
76990;BME280;65924;47.250;11.332;2024-01-06T02:34:00;93610.40;;;2.78;84.47
76990;BME280;65924;47.250;11.332;2024-01-06T02:34:31;93612.59;;;2.78;84.34
76990;BME280;65924;47.250;11.332;2024-01-06T02:35:03;93612.30;;;2.77;84.34
76990;BME280;65924;47.250;11.332;2024-01-06T02:35:34;93612.00;;;2.77;84.43
76990;BME280;65924;47.250;11.332;2024-01-06T02:36:05;93611.52;;;2.76;84.42
76990;BME280;65924;47.250;11.332;2024-01-06T02:36:36;93610.83;;;2.77;84.54
76990;BME280;65924;47.250;11.332;2024-01-06T02:37:07;93612.32;;;2.77;84.54
76990;BME280;65924;47.250;11.332;2024-01-06T02:37:37;93608.82;;;2.77;84.53
76990;BME280;65924;47.250;11.332;2024-01-06T02:38:08;93611.66;;;2.77;84.52
76990;BME280;65924;47.250;11.332;2024-01-06T02:38:40;93611.35;;;2.76;84.37
76990;BME280;65924;47.250;11.332;2024-01-06T02:39:11;93610.92;;;2.74;84.37
76990;BME280;65924;47.250;11.332;2024-01-06T02:39:41;93609.10;;;2.74;84.39
76990;BME280;65924;47.250;11.332;2024-01-06T02:40:13;93614.84;;;2.73;84.43
76990;BME280;65924;47.250;11.332;2024-01-06T02:40:44;93614.85;;;2.73;84.44
76990;BME280;65924;47.250;11.332;2024-01-06T02:41:14;93615.52;;;2.73;84.66
76990;BME280;65924;47.250;11.332;2024-01-06T02:41:45;93615.84;;;2.73;84.56
76990;BME280;65924;47.250;11.332;2024-01-06T02:42:16;93615.99;;;2.73;84.56
76990;BME280;65924;47.250;11.332;2024-01-06T02:42:47;93615.71;;;2.73;84.58
76990;BME280;65924;47.250;11.332;2024-01-06T02:43:20;93615.00;;;2.73;84.54
76990;BME280;65924;47.250;11.332;2024-01-06T02:43:54;93617.85;;;2.73;84.69